sensor_id;sensor_type;location;lat;lon;timestamp;P1;durP1;ratioP1;P2;durP2;ratioP2
14708;SDS011;7445;50.774;4.944;2023-02-28T00:00:19;10.87;;;9.60;;
14708;SDS011;7445;50.774;4.944;2023-02-28T00:02:45;10.50;;;8.37;;
14708;SDS011;7445;50.774;4.944;2023-02-28T00:05:12;9.63;;;8.67;;
14708;SDS011;7445;50.774;4.944;2023-02-28T00:07:40;9.87;;;8.47;;
14708;SDS011;7445;50.774;4.944;2023-02-28T00:10:07;9.50;;;8.60;;
14708;SDS011;7445;50.774;4.944;2023-02-28T00:12:36;10.17;;;8.37;;
14708;SDS011;7445;50.774;4.944;2023-02-28T00:15:04;10.80;;;9.67;;
14708;SDS011;7445;50.774;4.944;2023-02-28T00:17:31;10.57;;;9.57;;
14708;SDS011;7445;50.774;4.944;2023-02-28T00:19:56;11.33;;;10.23;;
14708;SDS011;7445;50.774;4.944;2023-02-28T00:22:29;9.90;;;8.60;;
14708;SDS011;7445;50.774;4.944;2023-02-28T00:24:55;9.87;;;8.87;;
14708;SDS011;7445;50.774;4.944;2023-02-28T00:27:21;10.37;;;9.37;;
14708;SDS011;7445;50.774;4.944;2023-02-28T00:29:47;12.77;;;9.70;;
14708;SDS011;7445;50.774;4.944;2023-02-28T00:32:12;11.13;;;8.90;;
14708;SDS011;7445;50.774;4.944;2023-02-28T00:34:38;12.67;;;9.77;;
14708;SDS011;7445;50.774;4.944;2023-02-28T00:37:07;10.30;;;9.33;;
14708;SDS011;7445;50.774;4.944;2023-02-28T00:39:34;12.23;;;9.37;;
14708;SDS011;7445;50.774;4.944;2023-02-28T00:42:01;10.70;;;9.00;;
14708;SDS011;7445;50.774;4.944;2023-02-28T00:44:28;10.17;;;9.23;;
14708;SDS011;7445;50.774;4.944;2023-02-28T00:46:55;9.63;;;8.73;;
14708;SDS011;7445;50.774;4.944;2023-02-28T00:49:21;12.20;;;10.03;;
14708;SDS011;7445;50.774;4.944;2023-02-28T00:51:47;10.47;;;9.37;;
14708;SDS011;7445;50.774;4.944;2023-02-28T00:54:13;10.00;;;8.73;;
14708;SDS011;7445;50.774;4.944;2023-02-28T00:56:40;9.70;;;8.80;;
14708;SDS011;7445;50.774;4.944;2023-02-28T00:59:06;10.60;;;9.63;;
14708;SDS011;7445;50.774;4.944;2023-02-28T01:01:32;11.97;;;10.07;;
14708;SDS011;7445;50.774;4.944;2023-02-28T01:03:58;10.03;;;9.13;;
14708;SDS011;7445;50.774;4.944;2023-02-28T01:06:24;9.40;;;8.43;;
14708;SDS011;7445;50.774;4.944;2023-02-28T01:08:51;9.77;;;8.97;;
14708;SDS011;7445;50.774;4.944;2023-02-28T01:11:17;9.90;;;9.00;;
14708;SDS011;7445;50.774;4.944;2023-02-28T01:13:44;10.87;;;8.90;;
14708;SDS011;7445;50.774;4.944;2023-02-28T01:16:11;10.57;;;9.57;;
14708;SDS011;7445;50.774;4.944;2023-02-28T01:18:37;11.93;;;9.60;;
14708;SDS011;7445;50.774;4.944;2023-02-28T01:21:07;11.07;;;9.53;;
14708;SDS011;7445;50.774;4.944;2023-02-28T01:23:35;12.97;;;8.77;;
14708;SDS011;7445;50.774;4.944;2023-02-28T01:26:05;13.03;;;9.40;;
14708;SDS011;7445;50.774;4.944;2023-02-28T01:28:32;12.23;;;9.63;;
14708;SDS011;7445;50.774;4.944;2023-02-28T01:30:57;12.60;;;11.30;;
14708;SDS011;7445;50.774;4.944;2023-02-28T01:33:23;11.67;;;10.30;;
14708;SDS011;7445;50.774;4.944;2023-02-28T01:35:49;9.60;;;8.47;;
14708;SDS011;7445;50.774;4.944;2023-02-28T01:38:14;11.67;;;10.47;;
14708;SDS011;7445;50.774;4.944;2023-02-28T01:40:40;11.37;;;10.13;;
14708;SDS011;7445;50.774;4.944;2023-02-28T01:43:17;13.57;;;11.30;;
14708;SDS011;7445;50.774;4.944;2023-02-28T01:45:46;10.87;;;9.77;;
14708;SDS011;7445;50.774;4.944;2023-02-28T01:48:12;15.90;;;10.03;;
14708;SDS011;7445;50.774;4.944;2023-02-28T01:50:39;13.57;;;11.60;;
14708;SDS011;7445;50.774;4.944;2023-02-28T01:53:09;10.30;;;9.20;;
14708;SDS011;7445;50.774;4.944;2023-02-28T01:55:38;9.80;;;8.80;;
14708;SDS011;7445;50.774;4.944;2023-02-28T01:58:05;10.50;;;9.40;;
14708;SDS011;7445;50.774;4.944;2023-02-28T02:00:32;10.17;;;9.07;;
14708;SDS011;7445;50.774;4.944;2023-02-28T02:03:05;10.83;;;9.73;;
14708;SDS011;7445;50.774;4.944;2023-02-28T02:05:33;10.43;;;9.30;;
14708;SDS011;7445;50.774;4.944;2023-02-28T02:08:03;11.43;;;9.77;;
14708;SDS011;7445;50.774;4.944;2023-02-28T02:13:10;13.77;;;11.67;;
14708;SDS011;7445;50.774;4.944;2023-02-28T02:16:13;12.20;;;10.40;;
14708;SDS011;7445;50.774;4.944;2023-02-28T02:27:03;12.23;;;11.13;;
14708;SDS011;7445;50.774;4.944;2023-02-28T02:35:15;17.33;;;11.10;;
14708;SDS011;7445;50.774;4.944;2023-02-28T02:40:35;15.60;;;10.93;;
14708;SDS011;7445;50.774;4.944;2023-02-28T02:43:07;12.17;;;11.03;;
14708;SDS011;7445;50.774;4.944;2023-02-28T02:46:01;13.30;;;11.60;;
14708;SDS011;7445;50.774;4.944;2023-02-28T02:48:27;10.60;;;9.50;;
14708;SDS011;7445;50.774;4.944;2023-02-28T02:50:59;12.60;;;10.43;;
14708;SDS011;7445;50.774;4.944;2023-02-28T02:53:34;16.10;;;11.70;;
14708;SDS011;7445;50.774;4.944;2023-02-28T02:56:22;12.33;;;10.50;;
14708;SDS011;7445;50.774;4.944;2023-02-28T02:58:53;11.37;;;10.17;;
14708;SDS011;7445;50.774;4.944;2023-02-28T03:01:22;13.33;;;12.03;;
14708;SDS011;7445;50.774;4.944;2023-02-28T03:03:56;14.57;;;12.43;;
14708;SDS011;7445;50.774;4.944;2023-02-28T03:06:24;13.40;;;11.13;;
14708;SDS011;7445;50.774;4.944;2023-02-28T03:08:50;12.43;;;11.17;;
14708;SDS011;7445;50.774;4.944;2023-02-28T03:11:16;14.57;;;11.47;;
14708;SDS011;7445;50.774;4.944;2023-02-28T03:24:46;13.00;;;11.70;;
14708;SDS011;7445;50.774;4.944;2023-02-28T03:27:25;13.03;;;10.93;;
14708;SDS011;7445;50.774;4.944;2023-02-28T03:30:02;12.43;;;11.27;;
14708;SDS011;7445;50.774;4.944;2023-02-28T03:35:31;11.97;;;10.87;;
14708;SDS011;7445;50.774;4.944;2023-02-28T03:38:05;13.57;;;12.13;;
14708;SDS011;7445;50.774;4.944;2023-02-28T03:40:41;12.37;;;10.97;;
14708;SDS011;7445;50.774;4.944;2023-02-28T03:43:13;11.07;;;9.93;;
14708;SDS011;7445;50.774;4.944;2023-02-28T03:45:44;13.53;;;10.33;;
14708;SDS011;7445;50.774;4.944;2023-02-28T03:48:17;12.23;;;10.93;;
14708;SDS011;7445;50.774;4.944;2023-02-28T03:50:51;17.47;;;10.40;;
14708;SDS011;7445;50.774;4.944;2023-02-28T03:53:22;11.73;;;10.53;;
14708;SDS011;7445;50.774;4.944;2023-02-28T03:56:07;14.43;;;12.00;;
14708;SDS011;7445;50.774;4.944;2023-02-28T03:58:51;11.93;;;10.73;;
14708;SDS011;7445;50.774;4.944;2023-02-28T04:01:41;11.53;;;10.33;;
14708;SDS011;7445;50.774;4.944;2023-02-28T04:04:09;14.30;;;11.00;;
14708;SDS011;7445;50.774;4.944;2023-02-28T04:06:36;11.30;;;10.23;;
14708;SDS011;7445;50.774;4.944;2023-02-28T04:09:04;12.73;;;11.37;;
14708;SDS011;7445;50.774;4.944;2023-02-28T04:13:56;16.07;;;12.83;;
14708;SDS011;7445;50.774;4.944;2023-02-28T04:16:22;12.60;;;11.40;;
14708;SDS011;7445;50.774;4.944;2023-02-28T04:18:48;12.80;;;11.50;;
14708;SDS011;7445;50.774;4.944;2023-02-28T04:21:13;14.83;;;13.23;;
14708;SDS011;7445;50.774;4.944;2023-02-28T04:23:39;14.40;;;12.17;;
14708;SDS011;7445;50.774;4.944;2023-02-28T04:26:04;12.23;;;11.03;;
14708;SDS011;7445;50.774;4.944;2023-02-28T04:28:32;14.13;;;12.77;;
14708;SDS011;7445;50.774;4.944;2023-02-28T04:30:58;14.17;;;12.87;;
14708;SDS011;7445;50.774;4.944;2023-02-28T04:33:27;19.30;;;13.20;;
14708;SDS011;7445;50.774;4.944;2023-02-28T04:36:04;16.30;;;12.43;;
14708;SDS011;7445;50.774;4.944;2023-02-28T04:38:33;16.23;;;13.67;;
14708;SDS011;7445;50.774;4.944;2023-02-28T04:41:00;16.23;;;12.63;;
14708;SDS011;7445;50.774;4.944;2023-02-28T04:43:26;15.63;;;14.03;;
14708;SDS011;7445;50.774;4.944;2023-02-28T04:45:54;13.80;;;12.40;;
14708;SDS011;7445;50.774;4.944;2023-02-28T04:48:22;15.63;;;13.47;;
14708;SDS011;7445;50.774;4.944;2023-02-28T04:50:52;19.33;;;12.00;;
14708;SDS011;7445;50.774;4.944;2023-02-28T04:53:18;14.47;;;12.90;;
14708;SDS011;7445;50.774;4.944;2023-02-28T04:55:44;17.10;;;14.63;;
14708;SDS011;7445;50.774;4.944;2023-02-28T04:58:10;17.27;;;13.70;;
14708;SDS011;7445;50.774;4.944;2023-02-28T05:00:38;15.30;;;13.77;;
14708;SDS011;7445;50.774;4.944;2023-02-28T05:03:05;14.57;;;13.17;;
14708;SDS011;7445;50.774;4.944;2023-02-28T05:05:31;16.43;;;14.73;;
14708;SDS011;7445;50.774;4.944;2023-02-28T05:07:58;17.03;;;14.07;;
14708;SDS011;7445;50.774;4.944;2023-02-28T05:10:25;17.00;;;14.97;;
14708;SDS011;7445;50.774;4.944;2023-02-28T05:12:52;20.97;;;16.27;;
14708;SDS011;7445;50.774;4.944;2023-02-28T05:15:20;22.57;;;16.93;;
14708;SDS011;7445;50.774;4.944;2023-02-28T05:17:47;15.93;;;14.33;;
14708;SDS011;7445;50.774;4.944;2023-02-28T05:20:13;17.10;;;15.30;;
14708;SDS011;7445;50.774;4.944;2023-02-28T05:22:40;17.13;;;15.03;;
14708;SDS011;7445;50.774;4.944;2023-02-28T05:25:06;17.20;;;15.40;;
14708;SDS011;7445;50.774;4.944;2023-02-28T05:27:36;14.90;;;13.30;;
14708;SDS011;7445;50.774;4.944;2023-02-28T05:30:03;14.10;;;12.80;;
14708;SDS011;7445;50.774;4.944;2023-02-28T05:32:32;14.83;;;13.33;;
14708;SDS011;7445;50.774;4.944;2023-02-28T05:35:00;17.07;;;14.60;;
14708;SDS011;7445;50.774;4.944;2023-02-28T05:37:25;15.00;;;13.63;;
14708;SDS011;7445;50.774;4.944;2023-02-28T05:39:51;14.87;;;13.40;;
14708;SDS011;7445;50.774;4.944;2023-02-28T05:42:18;15.47;;;13.97;;
14708;SDS011;7445;50.774;4.944;2023-02-28T05:44:44;19.07;;;15.10;;
14708;SDS011;7445;50.774;4.944;2023-02-28T05:47:10;22.63;;;19.07;;
14708;SDS011;7445;50.774;4.944;2023-02-28T05:49:40;28.53;;;21.60;;
14708;SDS011;7445;50.774;4.944;2023-02-28T05:52:07;29.83;;;25.33;;
14708;SDS011;7445;50.774;4.944;2023-02-28T05:54:34;30.50;;;26.43;;
14708;SDS011;7445;50.774;4.944;2023-02-28T05:57:01;28.90;;;25.83;;
14708;SDS011;7445;50.774;4.944;2023-02-28T05:59:32;25.13;;;22.50;;
14708;SDS011;7445;50.774;4.944;2023-02-28T06:01:59;28.27;;;20.93;;
14708;SDS011;7445;50.774;4.944;2023-02-28T06:04:24;22.97;;;19.80;;
14708;SDS011;7445;50.774;4.944;2023-02-28T06:06:50;24.57;;;20.30;;
14708;SDS011;7445;50.774;4.944;2023-02-28T06:09:17;27.37;;;20.23;;
14708;SDS011;7445;50.774;4.944;2023-02-28T06:11:44;25.53;;;21.17;;
14708;SDS011;7445;50.774;4.944;2023-02-28T06:14:19;26.80;;;21.87;;
14708;SDS011;7445;50.774;4.944;2023-02-28T06:16:56;31.17;;;24.80;;
14708;SDS011;7445;50.774;4.944;2023-02-28T06:19:23;26.23;;;22.93;;
14708;SDS011;7445;50.774;4.944;2023-02-28T06:21:54;26.23;;;23.50;;
14708;SDS011;7445;50.774;4.944;2023-02-28T06:24:22;28.73;;;22.70;;
14708;SDS011;7445;50.774;4.944;2023-02-28T06:26:48;19.37;;;17.50;;
14708;SDS011;7445;50.774;4.944;2023-02-28T06:29:14;19.77;;;17.43;;
14708;SDS011;7445;50.774;4.944;2023-02-28T06:31:44;21.23;;;16.93;;
14708;SDS011;7445;50.774;4.944;2023-02-28T06:34:10;21.73;;;16.43;;
14708;SDS011;7445;50.774;4.944;2023-02-28T06:36:39;18.20;;;16.37;;
14708;SDS011;7445;50.774;4.944;2023-02-28T06:39:06;19.73;;;16.00;;
14708;SDS011;7445;50.774;4.944;2023-02-28T06:41:32;19.03;;;17.00;;
14708;SDS011;7445;50.774;4.944;2023-02-28T06:44:03;18.10;;;15.87;;
14708;SDS011;7445;50.774;4.944;2023-02-28T06:46:30;18.20;;;15.50;;
14708;SDS011;7445;50.774;4.944;2023-02-28T06:48:56;16.93;;;15.23;;
14708;SDS011;7445;50.774;4.944;2023-02-28T06:51:22;17.60;;;15.70;;
14708;SDS011;7445;50.774;4.944;2023-02-28T06:53:49;18.23;;;15.60;;
14708;SDS011;7445;50.774;4.944;2023-02-28T06:56:15;17.23;;;15.43;;
14708;SDS011;7445;50.774;4.944;2023-02-28T06:58:45;18.93;;;15.73;;
14708;SDS011;7445;50.774;4.944;2023-02-28T07:01:13;21.27;;;15.50;;
14708;SDS011;7445;50.774;4.944;2023-02-28T07:03:39;19.97;;;15.93;;
14708;SDS011;7445;50.774;4.944;2023-02-28T07:06:05;27.37;;;22.00;;
14708;SDS011;7445;50.774;4.944;2023-02-28T07:08:31;22.30;;;20.10;;
14708;SDS011;7445;50.774;4.944;2023-02-28T07:10:57;24.10;;;20.77;;
14708;SDS011;7445;50.774;4.944;2023-02-28T07:13:23;19.90;;;16.70;;
14708;SDS011;7445;50.774;4.944;2023-02-28T07:15:56;15.03;;;13.53;;
14708;SDS011;7445;50.774;4.944;2023-02-28T07:18:25;19.33;;;15.40;;
14708;SDS011;7445;50.774;4.944;2023-02-28T07:20:51;20.87;;;16.97;;
14708;SDS011;7445;50.774;4.944;2023-02-28T07:23:18;15.10;;;13.50;;
14708;SDS011;7445;50.774;4.944;2023-02-28T07:25:44;15.33;;;13.13;;
14708;SDS011;7445;50.774;4.944;2023-02-28T07:28:10;15.67;;;13.97;;
14708;SDS011;7445;50.774;4.944;2023-02-28T07:30:36;14.23;;;12.83;;
14708;SDS011;7445;50.774;4.944;2023-02-28T07:33:02;15.67;;;13.77;;
14708;SDS011;7445;50.774;4.944;2023-02-28T07:35:28;15.80;;;13.27;;
14708;SDS011;7445;50.774;4.944;2023-02-28T07:37:54;14.67;;;13.07;;
14708;SDS011;7445;50.774;4.944;2023-02-28T07:40:19;15.60;;;12.83;;
14708;SDS011;7445;50.774;4.944;2023-02-28T07:42:45;16.37;;;14.77;;
14708;SDS011;7445;50.774;4.944;2023-02-28T07:45:11;16.83;;;12.60;;
14708;SDS011;7445;50.774;4.944;2023-02-28T07:47:37;15.10;;;13.63;;
14708;SDS011;7445;50.774;4.944;2023-02-28T07:50:04;17.57;;;14.77;;
14708;SDS011;7445;50.774;4.944;2023-02-28T07:52:30;19.03;;;13.97;;
14708;SDS011;7445;50.774;4.944;2023-02-28T07:54:57;15.70;;;13.87;;
14708;SDS011;7445;50.774;4.944;2023-02-28T07:57:22;16.30;;;13.93;;
14708;SDS011;7445;50.774;4.944;2023-02-28T07:59:48;15.67;;;13.80;;
14708;SDS011;7445;50.774;4.944;2023-02-28T08:02:14;14.53;;;13.00;;
14708;SDS011;7445;50.774;4.944;2023-02-28T08:04:41;15.40;;;13.97;;
14708;SDS011;7445;50.774;4.944;2023-02-28T08:07:07;13.43;;;12.03;;
14708;SDS011;7445;50.774;4.944;2023-02-28T08:09:33;14.00;;;12.60;;
14708;SDS011;7445;50.774;4.944;2023-02-28T08:11:59;14.13;;;12.03;;
14708;SDS011;7445;50.774;4.944;2023-02-28T08:14:25;13.97;;;11.33;;
14708;SDS011;7445;50.774;4.944;2023-02-28T08:16:51;12.27;;;10.80;;
14708;SDS011;7445;50.774;4.944;2023-02-28T08:19:16;14.87;;;11.60;;
14708;SDS011;7445;50.774;4.944;2023-02-28T08:21:42;14.00;;;11.20;;
14708;SDS011;7445;50.774;4.944;2023-02-28T08:24:08;12.87;;;11.47;;
14708;SDS011;7445;50.774;4.944;2023-02-28T08:26:33;13.27;;;11.97;;
14708;SDS011;7445;50.774;4.944;2023-02-28T08:28:59;14.53;;;12.23;;
14708;SDS011;7445;50.774;4.944;2023-02-28T08:31:24;13.10;;;11.27;;
14708;SDS011;7445;50.774;4.944;2023-02-28T08:33:51;12.67;;;11.37;;
14708;SDS011;7445;50.774;4.944;2023-02-28T08:36:18;12.83;;;10.87;;
14708;SDS011;7445;50.774;4.944;2023-02-28T08:38:44;10.87;;;9.73;;
14708;SDS011;7445;50.774;4.944;2023-02-28T08:41:11;11.47;;;10.27;;
14708;SDS011;7445;50.774;4.944;2023-02-28T08:43:38;11.63;;;10.47;;
14708;SDS011;7445;50.774;4.944;2023-02-28T08:46:05;13.40;;;10.60;;
14708;SDS011;7445;50.774;4.944;2023-02-28T08:48:32;13.53;;;9.97;;
14708;SDS011;7445;50.774;4.944;2023-02-28T08:51:01;10.67;;;9.40;;
14708;SDS011;7445;50.774;4.944;2023-02-28T08:53:32;12.07;;;9.83;;
14708;SDS011;7445;50.774;4.944;2023-02-28T08:56:02;12.53;;;9.80;;
14708;SDS011;7445;50.774;4.944;2023-02-28T08:58:29;10.90;;;9.80;;
14708;SDS011;7445;50.774;4.944;2023-02-28T09:00:55;10.23;;;9.33;;
14708;SDS011;7445;50.774;4.944;2023-02-28T09:03:22;10.43;;;9.37;;
14708;SDS011;7445;50.774;4.944;2023-02-28T09:05:56;10.20;;;9.20;;
14708;SDS011;7445;50.774;4.944;2023-02-28T09:08:24;13.50;;;10.17;;
14708;SDS011;7445;50.774;4.944;2023-02-28T09:10:50;10.63;;;9.23;;
14708;SDS011;7445;50.774;4.944;2023-02-28T09:13:17;10.20;;;9.30;;
14708;SDS011;7445;50.774;4.944;2023-02-28T09:15:43;9.87;;;9.07;;
14708;SDS011;7445;50.774;4.944;2023-02-28T09:18:09;8.63;;;7.83;;
14708;SDS011;7445;50.774;4.944;2023-02-28T09:20:37;10.13;;;8.43;;
14708;SDS011;7445;50.774;4.944;2023-02-28T09:23:03;9.40;;;8.47;;
14708;SDS011;7445;50.774;4.944;2023-02-28T09:25:29;9.23;;;8.20;;
14708;SDS011;7445;50.774;4.944;2023-02-28T09:27:55;8.50;;;7.70;;
14708;SDS011;7445;50.774;4.944;2023-02-28T09:30:21;8.90;;;8.13;;
14708;SDS011;7445;50.774;4.944;2023-02-28T09:32:47;7.77;;;6.97;;
14708;SDS011;7445;50.774;4.944;2023-02-28T09:35:17;8.00;;;7.30;;
14708;SDS011;7445;50.774;4.944;2023-02-28T09:37:43;14.10;;;7.57;;
14708;SDS011;7445;50.774;4.944;2023-02-28T09:40:10;8.33;;;7.47;;
14708;SDS011;7445;50.774;4.944;2023-02-28T09:42:37;7.67;;;6.97;;
14708;SDS011;7445;50.774;4.944;2023-02-28T09:45:11;7.77;;;7.07;;
14708;SDS011;7445;50.774;4.944;2023-02-28T09:47:47;12.67;;;7.00;;
14708;SDS011;7445;50.774;4.944;2023-02-28T09:52:51;6.57;;;5.97;;
14708;SDS011;7445;50.774;4.944;2023-02-28T09:55:26;7.40;;;6.00;;
14708;SDS011;7445;50.774;4.944;2023-02-28T09:58:10;7.33;;;6.63;;
14708;SDS011;7445;50.774;4.944;2023-02-28T10:00:48;9.80;;;6.20;;
14708;SDS011;7445;50.774;4.944;2023-02-28T10:03:32;7.97;;;6.67;;
14708;SDS011;7445;50.774;4.944;2023-02-28T10:08:45;10.73;;;6.47;;
14708;SDS011;7445;50.774;4.944;2023-02-28T10:11:26;7.50;;;5.07;;
14708;SDS011;7445;50.774;4.944;2023-02-28T10:13:59;4.73;;;4.30;;
14708;SDS011;7445;50.774;4.944;2023-02-28T10:16:40;6.30;;;5.70;;
14708;SDS011;7445;50.774;4.944;2023-02-28T10:19:22;5.43;;;4.87;;
14708;SDS011;7445;50.774;4.944;2023-02-28T10:22:22;5.30;;;4.90;;
14708;SDS011;7445;50.774;4.944;2023-02-28T10:25:05;6.37;;;5.27;;
14708;SDS011;7445;50.774;4.944;2023-02-28T10:27:45;5.40;;;4.83;;
14708;SDS011;7445;50.774;4.944;2023-02-28T10:30:12;7.67;;;4.50;;
14708;SDS011;7445;50.774;4.944;2023-02-28T10:55:29;5.10;;;4.47;;
14708;SDS011;7445;50.774;4.944;2023-02-28T10:58:00;5.37;;;4.67;;
14708;SDS011;7445;50.774;4.944;2023-02-28T11:00:32;4.77;;;4.37;;
14708;SDS011;7445;50.774;4.944;2023-02-28T11:02:59;4.57;;;4.17;;
14708;SDS011;7445;50.774;4.944;2023-02-28T11:07:55;7.60;;;4.40;;
14708;SDS011;7445;50.774;4.944;2023-02-28T11:10:31;5.30;;;4.80;;
14708;SDS011;7445;50.774;4.944;2023-02-28T11:12:59;4.80;;;4.40;;
14708;SDS011;7445;50.774;4.944;2023-02-28T11:15:27;9.77;;;4.30;;
14708;SDS011;7445;50.774;4.944;2023-02-28T11:20:28;4.97;;;3.67;;
14708;SDS011;7445;50.774;4.944;2023-02-28T11:22:55;5.33;;;4.13;;
14708;SDS011;7445;50.774;4.944;2023-02-28T11:28:02;5.03;;;4.50;;
14708;SDS011;7445;50.774;4.944;2023-02-28T11:33:25;5.07;;;4.63;;
14708;SDS011;7445;50.774;4.944;2023-02-28T11:35:58;4.30;;;3.90;;
14708;SDS011;7445;50.774;4.944;2023-02-28T11:38:29;5.93;;;4.20;;
14708;SDS011;7445;50.774;4.944;2023-02-28T11:41:02;5.13;;;4.60;;
14708;SDS011;7445;50.774;4.944;2023-02-28T11:46:41;4.43;;;3.73;;
14708;SDS011;7445;50.774;4.944;2023-02-28T12:06:33;10.90;;;6.00;;
14708;SDS011;7445;50.774;4.944;2023-02-28T12:11:54;8.60;;;5.60;;
14708;SDS011;7445;50.774;4.944;2023-02-28T12:28:01;5.27;;;4.30;;
14708;SDS011;7445;50.774;4.944;2023-02-28T12:30:32;5.10;;;3.67;;
14708;SDS011;7445;50.774;4.944;2023-02-28T12:36:13;3.50;;;3.20;;
14708;SDS011;7445;50.774;4.944;2023-02-28T12:38:13;5.33;;;3.60;;
14708;SDS011;7445;50.774;4.944;2023-02-28T12:40:45;3.40;;;3.10;;
14708;SDS011;7445;50.774;4.944;2023-02-28T12:43:16;4.80;;;3.20;;
14708;SDS011;7445;50.774;4.944;2023-02-28T12:45:56;5.33;;;3.60;;
14708;SDS011;7445;50.774;4.944;2023-02-28T12:48:56;4.73;;;3.57;;
14708;SDS011;7445;50.774;4.944;2023-02-28T12:51:24;5.23;;;3.17;;
14708;SDS011;7445;50.774;4.944;2023-02-28T12:53:57;3.27;;;2.90;;
14708;SDS011;7445;50.774;4.944;2023-02-28T12:59:34;3.50;;;3.20;;
14708;SDS011;7445;50.774;4.944;2023-02-28T13:05:26;5.20;;;3.43;;
14708;SDS011;7445;50.774;4.944;2023-02-28T13:10:57;3.43;;;3.13;;
14708;SDS011;7445;50.774;4.944;2023-02-28T13:13:26;4.53;;;3.70;;
14708;SDS011;7445;50.774;4.944;2023-02-28T13:21:25;3.90;;;3.60;;
14708;SDS011;7445;50.774;4.944;2023-02-28T13:29:02;3.37;;;3.07;;
14708;SDS011;7445;50.774;4.944;2023-02-28T13:34:37;4.47;;;4.17;;
14708;SDS011;7445;50.774;4.944;2023-02-28T13:47:30;4.23;;;3.93;;
14708;SDS011;7445;50.774;4.944;2023-02-28T13:50:21;4.80;;;4.33;;
14708;SDS011;7445;50.774;4.944;2023-02-28T13:53:01;3.43;;;3.13;;
14708;SDS011;7445;50.774;4.944;2023-02-28T14:01:44;4.93;;;4.53;;
14708;SDS011;7445;50.774;4.944;2023-02-28T14:07:16;9.80;;;5.23;;
14708;SDS011;7445;50.774;4.944;2023-02-28T14:09:47;16.67;;;5.63;;
14708;SDS011;7445;50.774;4.944;2023-02-28T14:18:05;5.27;;;4.43;;
14708;SDS011;7445;50.774;4.944;2023-02-28T14:20:44;4.80;;;4.47;;
14708;SDS011;7445;50.774;4.944;2023-02-28T14:23:19;7.20;;;5.27;;
14708;SDS011;7445;50.774;4.944;2023-02-28T14:26:10;5.53;;;5.03;;
14708;SDS011;7445;50.774;4.944;2023-02-28T14:31:33;4.93;;;4.57;;
14708;SDS011;7445;50.774;4.944;2023-02-28T14:34:30;6.40;;;5.13;;
14708;SDS011;7445;50.774;4.944;2023-02-28T14:37:04;4.63;;;4.33;;
14708;SDS011;7445;50.774;4.944;2023-02-28T14:39:32;5.70;;;5.20;;
14708;SDS011;7445;50.774;4.944;2023-02-28T14:41:59;4.50;;;4.20;;
14708;SDS011;7445;50.774;4.944;2023-02-28T14:44:29;5.83;;;5.27;;
14708;SDS011;7445;50.774;4.944;2023-02-28T14:47:04;7.20;;;5.33;;
14708;SDS011;7445;50.774;4.944;2023-02-28T14:49:44;5.07;;;4.73;;
14708;SDS011;7445;50.774;4.944;2023-02-28T14:52:14;5.63;;;5.13;;
14708;SDS011;7445;50.774;4.944;2023-02-28T14:54:45;5.73;;;5.33;;
14708;SDS011;7445;50.774;4.944;2023-02-28T14:57:51;7.57;;;5.40;;
14708;SDS011;7445;50.774;4.944;2023-02-28T15:00:22;5.47;;;4.97;;
14708;SDS011;7445;50.774;4.944;2023-02-28T15:05:23;6.63;;;6.03;;
14708;SDS011;7445;50.774;4.944;2023-02-28T15:08:03;5.20;;;4.80;;
14708;SDS011;7445;50.774;4.944;2023-02-28T15:10:40;6.23;;;5.23;;
14708;SDS011;7445;50.774;4.944;2023-02-28T15:13:16;4.60;;;4.30;;
14708;SDS011;7445;50.774;4.944;2023-02-28T15:15:59;4.50;;;4.10;;
14708;SDS011;7445;50.774;4.944;2023-02-28T15:18:36;7.57;;;4.97;;
14708;SDS011;7445;50.774;4.944;2023-02-28T15:21:37;5.73;;;5.13;;
14708;SDS011;7445;50.774;4.944;2023-02-28T15:27:05;5.37;;;4.57;;
14708;SDS011;7445;50.774;4.944;2023-02-28T15:29:41;6.73;;;5.20;;
14708;SDS011;7445;50.774;4.944;2023-02-28T15:32:20;5.53;;;5.07;;
14708;SDS011;7445;50.774;4.944;2023-02-28T15:34:53;5.37;;;4.90;;
14708;SDS011;7445;50.774;4.944;2023-02-28T15:37:33;5.93;;;4.60;;
14708;SDS011;7445;50.774;4.944;2023-02-28T15:40:17;5.27;;;4.87;;
14708;SDS011;7445;50.774;4.944;2023-02-28T15:45:36;5.03;;;4.50;;
14708;SDS011;7445;50.774;4.944;2023-02-28T15:48:12;5.97;;;5.43;;
14708;SDS011;7445;50.774;4.944;2023-02-28T15:50:48;5.17;;;4.73;;
14708;SDS011;7445;50.774;4.944;2023-02-28T15:53:27;4.67;;;4.37;;
14708;SDS011;7445;50.774;4.944;2023-02-28T15:56:02;6.53;;;5.73;;
14708;SDS011;7445;50.774;4.944;2023-02-28T15:58:32;5.10;;;4.63;;
14708;SDS011;7445;50.774;4.944;2023-02-28T16:01:01;5.53;;;5.07;;
14708;SDS011;7445;50.774;4.944;2023-02-28T16:03:38;5.57;;;5.07;;
14708;SDS011;7445;50.774;4.944;2023-02-28T16:08:48;4.57;;;4.17;;
14708;SDS011;7445;50.774;4.944;2023-02-28T16:11:13;5.47;;;4.97;;
14708;SDS011;7445;50.774;4.944;2023-02-28T16:13:40;6.77;;;4.73;;
14708;SDS011;7445;50.774;4.944;2023-02-28T16:16:05;4.47;;;4.10;;
14708;SDS011;7445;50.774;4.944;2023-02-28T16:18:31;6.07;;;4.97;;
14708;SDS011;7445;50.774;4.944;2023-02-28T16:20:57;5.00;;;4.63;;
14708;SDS011;7445;50.774;4.944;2023-02-28T16:23:22;4.77;;;4.37;;
14708;SDS011;7445;50.774;4.944;2023-02-28T16:25:48;6.00;;;5.23;;
14708;SDS011;7445;50.774;4.944;2023-02-28T16:30:44;5.87;;;5.40;;
14708;SDS011;7445;50.774;4.944;2023-02-28T16:33:10;6.37;;;5.53;;
14708;SDS011;7445;50.774;4.944;2023-02-28T16:35:35;4.90;;;4.47;;
14708;SDS011;7445;50.774;4.944;2023-02-28T16:38:01;4.60;;;4.20;;
14708;SDS011;7445;50.774;4.944;2023-02-28T16:40:26;5.17;;;4.67;;
14708;SDS011;7445;50.774;4.944;2023-02-28T16:42:56;5.77;;;5.27;;
14708;SDS011;7445;50.774;4.944;2023-02-28T16:45:26;5.37;;;4.80;;
14708;SDS011;7445;50.774;4.944;2023-02-28T16:47:53;7.80;;;6.03;;
14708;SDS011;7445;50.774;4.944;2023-02-28T16:50:22;5.20;;;4.80;;
14708;SDS011;7445;50.774;4.944;2023-02-28T16:52:49;5.17;;;4.77;;
14708;SDS011;7445;50.774;4.944;2023-02-28T16:55:17;6.23;;;4.70;;
14708;SDS011;7445;50.774;4.944;2023-02-28T16:57:50;5.77;;;5.27;;
14708;SDS011;7445;50.774;4.944;2023-02-28T17:00:18;5.80;;;5.30;;
14708;SDS011;7445;50.774;4.944;2023-02-28T17:02:43;5.13;;;4.83;;
14708;SDS011;7445;50.774;4.944;2023-02-28T17:05:12;7.27;;;6.57;;
14708;SDS011;7445;50.774;4.944;2023-02-28T17:07:39;7.07;;;6.37;;
14708;SDS011;7445;50.774;4.944;2023-02-28T17:10:13;7.20;;;6.27;;
14708;SDS011;7445;50.774;4.944;2023-02-28T17:12:39;6.73;;;6.13;;
14708;SDS011;7445;50.774;4.944;2023-02-28T17:15:05;7.00;;;6.03;;
14708;SDS011;7445;50.774;4.944;2023-02-28T17:17:31;6.43;;;5.90;;
14708;SDS011;7445;50.774;4.944;2023-02-28T17:19:58;6.50;;;5.43;;
14708;SDS011;7445;50.774;4.944;2023-02-28T17:22:24;5.80;;;5.30;;
14708;SDS011;7445;50.774;4.944;2023-02-28T17:24:51;7.80;;;7.03;;
14708;SDS011;7445;50.774;4.944;2023-02-28T17:27:20;7.87;;;6.77;;
14708;SDS011;7445;50.774;4.944;2023-02-28T17:29:46;7.57;;;6.90;;
